sensor_id;sensor_type;location;lat;lon;timestamp;temperature;humidity
13409;DHT22;6775;49.574;11.170;2023-12-20T00:02:16;4.90;99.90
13409;DHT22;6775;49.574;11.170;2023-12-20T00:04:44;5.10;99.90
13409;DHT22;6775;49.574;11.170;2023-12-20T00:07:12;5.20;99.90
13409;DHT22;6775;49.574;11.170;2023-12-20T00:09:41;5.30;99.90
13409;DHT22;6775;49.574;11.170;2023-12-20T00:12:09;5.40;99.90
13409;DHT22;6775;49.574;11.170;2023-12-20T00:14:37;5.40;99.90
13409;DHT22;6775;49.574;11.170;2023-12-20T00:17:07;5.50;99.90
13409;DHT22;6775;49.574;11.170;2023-12-20T00:19:35;5.50;99.90
13409;DHT22;6775;49.574;11.170;2023-12-20T00:22:04;5.50;99.90
13409;DHT22;6775;49.574;11.170;2023-12-20T00:24:32;5.60;99.90
13409;DHT22;6775;49.574;11.170;2023-12-20T00:27:00;5.60;99.90
13409;DHT22;6775;49.574;11.170;2023-12-20T00:29:29;5.70;99.90
13409;DHT22;6775;49.574;11.170;2023-12-20T00:31:57;5.70;99.90
13409;DHT22;6775;49.574;11.170;2023-12-20T00:34:26;5.70;99.90
13409;DHT22;6775;49.574;11.170;2023-12-20T00:36:54;5.70;99.90
13409;DHT22;6775;49.574;11.170;2023-12-20T00:39:23;5.70;99.90
13409;DHT22;6775;49.574;11.170;2023-12-20T00:41:51;5.80;99.90
13409;DHT22;6775;49.574;11.170;2023-12-20T00:44:20;5.70;99.90
13409;DHT22;6775;49.574;11.170;2023-12-20T00:46:48;5.80;99.90
13409;DHT22;6775;49.574;11.170;2023-12-20T00:49:16;5.80;99.90
13409;DHT22;6775;49.574;11.170;2023-12-20T00:51:45;5.80;99.90
13409;DHT22;6775;49.574;11.170;2023-12-20T00:54:14;5.80;99.90
13409;DHT22;6775;49.574;11.170;2023-12-20T00:56:43;5.80;99.90
13409;DHT22;6775;49.574;11.170;2023-12-20T00:59:11;5.80;99.90
13409;DHT22;6775;49.574;11.170;2023-12-20T01:01:39;5.80;99.90
13409;DHT22;6775;49.574;11.170;2023-12-20T01:04:08;5.90;99.90
13409;DHT22;6775;49.574;11.170;2023-12-20T01:06:37;5.90;99.90
13409;DHT22;6775;49.574;11.170;2023-12-20T01:09:06;5.80;99.90
13409;DHT22;6775;49.574;11.170;2023-12-20T01:11:34;5.80;99.90
13409;DHT22;6775;49.574;11.170;2023-12-20T01:14:02;5.80;99.90
13409;DHT22;6775;49.574;11.170;2023-12-20T01:16:30;5.80;99.90
13409;DHT22;6775;49.574;11.170;2023-12-20T01:18:58;5.80;99.90
13409;DHT22;6775;49.574;11.170;2023-12-20T01:21:26;5.80;99.90
13409;DHT22;6775;49.574;11.170;2023-12-20T01:23:54;5.80;99.90
13409;DHT22;6775;49.574;11.170;2023-12-20T01:26:24;5.80;99.90
13409;DHT22;6775;49.574;11.170;2023-12-20T01:28:52;5.80;99.90
13409;DHT22;6775;49.574;11.170;2023-12-20T01:31:20;5.80;99.90
13409;DHT22;6775;49.574;11.170;2023-12-20T01:33:48;5.80;99.90
13409;DHT22;6775;49.574;11.170;2023-12-20T01:36:16;5.70;99.90
13409;DHT22;6775;49.574;11.170;2023-12-20T01:38:44;5.70;99.90
13409;DHT22;6775;49.574;11.170;2023-12-20T01:41:13;5.80;99.90
13409;DHT22;6775;49.574;11.170;2023-12-20T01:43:42;5.70;99.90
13409;DHT22;6775;49.574;11.170;2023-12-20T01:46:17;5.70;99.90
13409;DHT22;6775;49.574;11.170;2023-12-20T01:48:48;5.70;99.90
13409;DHT22;6775;49.574;11.170;2023-12-20T01:51:17;5.70;99.90
13409;DHT22;6775;49.574;11.170;2023-12-20T01:53:45;5.70;99.90
13409;DHT22;6775;49.574;11.170;2023-12-20T01:56:15;5.70;99.90
13409;DHT22;6775;49.574;11.170;2023-12-20T01:58:46;5.70;99.90
13409;DHT22;6775;49.574;11.170;2023-12-20T02:01:15;5.70;99.90
13409;DHT22;6775;49.574;11.170;2023-12-20T02:03:44;5.60;99.90
13409;DHT22;6775;49.574;11.170;2023-12-20T02:06:13;5.60;99.90
13409;DHT22;6775;49.574;11.170;2023-12-20T02:08:42;5.60;99.90
13409;DHT22;6775;49.574;11.170;2023-12-20T02:11:11;5.60;99.90
13409;DHT22;6775;49.574;11.170;2023-12-20T02:13:39;5.60;99.90
13409;DHT22;6775;49.574;11.170;2023-12-20T02:16:08;5.60;99.90
13409;DHT22;6775;49.574;11.170;2023-12-20T02:18:36;5.60;99.90
13409;DHT22;6775;49.574;11.170;2023-12-20T02:21:04;5.60;99.90
13409;DHT22;6775;49.574;11.170;2023-12-20T02:23:34;5.50;99.90
13409;DHT22;6775;49.574;11.170;2023-12-20T02:26:03;5.50;99.90
13409;DHT22;6775;49.574;11.170;2023-12-20T02:28:33;5.50;99.90
13409;DHT22;6775;49.574;11.170;2023-12-20T02:31:02;5.50;99.90
13409;DHT22;6775;49.574;11.170;2023-12-20T02:33:31;5.50;99.90
13409;DHT22;6775;49.574;11.170;2023-12-20T02:35:59;5.40;99.90
13409;DHT22;6775;49.574;11.170;2023-12-20T02:38:27;5.40;99.90
13409;DHT22;6775;49.574;11.170;2023-12-20T02:40:57;5.40;99.90
13409;DHT22;6775;49.574;11.170;2023-12-20T02:43:25;5.40;99.90
13409;DHT22;6775;49.574;11.170;2023-12-20T02:45:53;5.40;99.90
13409;DHT22;6775;49.574;11.170;2023-12-20T02:48:22;5.30;99.90
13409;DHT22;6775;49.574;11.170;2023-12-20T02:50:50;5.30;99.90
13409;DHT22;6775;49.574;11.170;2023-12-20T02:53:19;5.20;99.90
13409;DHT22;6775;49.574;11.170;2023-12-20T02:55:47;5.20;99.90
13409;DHT22;6775;49.574;11.170;2023-12-20T02:58:16;5.20;99.90
13409;DHT22;6775;49.574;11.170;2023-12-20T03:00:45;5.20;99.90
13409;DHT22;6775;49.574;11.170;2023-12-20T03:03:13;5.10;99.90
13409;DHT22;6775;49.574;11.170;2023-12-20T03:05:42;5.10;99.90
13409;DHT22;6775;49.574;11.170;2023-12-20T03:08:10;5.10;99.90
13409;DHT22;6775;49.574;11.170;2023-12-20T03:10:38;5.10;99.90
13409;DHT22;6775;49.574;11.170;2023-12-20T03:13:06;5.10;99.90
13409;DHT22;6775;49.574;11.170;2023-12-20T03:15:36;5.10;99.90
13409;DHT22;6775;49.574;11.170;2023-12-20T03:18:04;5.10;99.90
13409;DHT22;6775;49.574;11.170;2023-12-20T03:20:33;5.10;99.90
13409;DHT22;6775;49.574;11.170;2023-12-20T03:23:01;5.10;99.90
13409;DHT22;6775;49.574;11.170;2023-12-20T03:25:29;5.00;99.90
13409;DHT22;6775;49.574;11.170;2023-12-20T03:27:58;5.00;99.90
13409;DHT22;6775;49.574;11.170;2023-12-20T03:30:26;5.00;99.90
13409;DHT22;6775;49.574;11.170;2023-12-20T03:32:55;5.10;99.90
13409;DHT22;6775;49.574;11.170;2023-12-20T03:35:23;5.00;99.90
13409;DHT22;6775;49.574;11.170;2023-12-20T03:37:51;5.00;99.90
13409;DHT22;6775;49.574;11.170;2023-12-20T03:40:19;5.00;99.90
13409;DHT22;6775;49.574;11.170;2023-12-20T03:42:47;5.00;99.90
13409;DHT22;6775;49.574;11.170;2023-12-20T03:45:15;5.00;99.90
13409;DHT22;6775;49.574;11.170;2023-12-20T03:47:43;5.00;99.90
13409;DHT22;6775;49.574;11.170;2023-12-20T03:50:13;5.00;99.90
13409;DHT22;6775;49.574;11.170;2023-12-20T03:52:42;5.00;99.90
13409;DHT22;6775;49.574;11.170;2023-12-20T03:55:10;5.00;99.90
13409;DHT22;6775;49.574;11.170;2023-12-20T03:57:38;5.00;99.90
13409;DHT22;6775;49.574;11.170;2023-12-20T04:00:08;5.00;99.90
13409;DHT22;6775;49.574;11.170;2023-12-20T04:02:37;5.00;99.90
13409;DHT22;6775;49.574;11.170;2023-12-20T04:05:05;4.90;99.90
13409;DHT22;6775;49.574;11.170;2023-12-20T04:07:35;4.90;99.90
13409;DHT22;6775;49.574;11.170;2023-12-20T04:10:05;4.90;99.90
13409;DHT22;6775;49.574;11.170;2023-12-20T04:12:33;4.90;99.90
13409;DHT22;6775;49.574;11.170;2023-12-20T04:15:02;4.90;99.90
13409;DHT22;6775;49.574;11.170;2023-12-20T04:17:35;4.90;99.90
13409;DHT22;6775;49.574;11.170;2023-12-20T04:20:04;4.90;99.90
13409;DHT22;6775;49.574;11.170;2023-12-20T04:22:35;4.80;99.90
13409;DHT22;6775;49.574;11.170;2023-12-20T04:25:04;4.90;99.90
13409;DHT22;6775;49.574;11.170;2023-12-20T04:27:32;4.80;99.90
13409;DHT22;6775;49.574;11.170;2023-12-20T04:30:00;4.80;99.90
13409;DHT22;6775;49.574;11.170;2023-12-20T04:32:29;4.80;99.90
13409;DHT22;6775;49.574;11.170;2023-12-20T04:34:58;4.80;99.90
13409;DHT22;6775;49.574;11.170;2023-12-20T04:37:26;4.80;99.90
13409;DHT22;6775;49.574;11.170;2023-12-20T04:39:56;4.80;99.90
13409;DHT22;6775;49.574;11.170;2023-12-20T04:42:24;4.80;99.90
13409;DHT22;6775;49.574;11.170;2023-12-20T04:44:52;4.80;99.90
13409;DHT22;6775;49.574;11.170;2023-12-20T04:47:20;4.80;99.90
13409;DHT22;6775;49.574;11.170;2023-12-20T04:49:48;4.80;99.90
13409;DHT22;6775;49.574;11.170;2023-12-20T04:52:16;4.80;99.90
13409;DHT22;6775;49.574;11.170;2023-12-20T04:54:45;4.80;99.90
13409;DHT22;6775;49.574;11.170;2023-12-20T04:57:14;4.80;99.90
13409;DHT22;6775;49.574;11.170;2023-12-20T04:59:42;4.80;99.90
13409;DHT22;6775;49.574;11.170;2023-12-20T05:02:10;4.80;99.90
13409;DHT22;6775;49.574;11.170;2023-12-20T05:04:39;4.80;99.90
13409;DHT22;6775;49.574;11.170;2023-12-20T05:07:08;4.80;99.90
13409;DHT22;6775;49.574;11.170;2023-12-20T05:09:36;4.80;99.90
13409;DHT22;6775;49.574;11.170;2023-12-20T05:12:05;4.80;99.90
13409;DHT22;6775;49.574;11.170;2023-12-20T05:14:35;4.80;99.90
13409;DHT22;6775;49.574;11.170;2023-12-20T05:17:03;4.80;99.90
13409;DHT22;6775;49.574;11.170;2023-12-20T05:19:32;4.80;99.90
13409;DHT22;6775;49.574;11.170;2023-12-20T05:22:02;4.80;99.90
13409;DHT22;6775;49.574;11.170;2023-12-20T05:24:30;4.80;99.90
13409;DHT22;6775;49.574;11.170;2023-12-20T05:26:58;4.80;99.90
13409;DHT22;6775;49.574;11.170;2023-12-20T05:29:27;4.80;99.90
13409;DHT22;6775;49.574;11.170;2023-12-20T05:31:58;4.80;99.90
13409;DHT22;6775;49.574;11.170;2023-12-20T05:34:26;4.80;99.90
13409;DHT22;6775;49.574;11.170;2023-12-20T05:36:54;4.80;99.90
13409;DHT22;6775;49.574;11.170;2023-12-20T05:39:23;4.80;99.90
13409;DHT22;6775;49.574;11.170;2023-12-20T05:41:51;4.80;99.90
13409;DHT22;6775;49.574;11.170;2023-12-20T05:44:19;4.80;99.90
13409;DHT22;6775;49.574;11.170;2023-12-20T05:46:47;4.70;99.90
13409;DHT22;6775;49.574;11.170;2023-12-20T05:49:17;4.80;99.90
13409;DHT22;6775;49.574;11.170;2023-12-20T05:51:45;4.70;99.90
13409;DHT22;6775;49.574;11.170;2023-12-20T05:54:13;4.70;99.90
13409;DHT22;6775;49.574;11.170;2023-12-20T05:56:41;4.70;99.90
13409;DHT22;6775;49.574;11.170;2023-12-20T05:59:10;4.70;99.90
13409;DHT22;6775;49.574;11.170;2023-12-20T06:01:38;4.80;99.90
13409;DHT22;6775;49.574;11.170;2023-12-20T06:04:06;4.80;99.90
13409;DHT22;6775;49.574;11.170;2023-12-20T06:06:40;4.80;99.90
13409;DHT22;6775;49.574;11.170;2023-12-20T06:09:09;4.80;99.90
13409;DHT22;6775;49.574;11.170;2023-12-20T06:11:37;4.80;99.90
13409;DHT22;6775;49.574;11.170;2023-12-20T06:14:06;4.90;99.90
13409;DHT22;6775;49.574;11.170;2023-12-20T06:16:34;4.80;99.90
13409;DHT22;6775;49.574;11.170;2023-12-20T06:19:02;4.80;99.90
13409;DHT22;6775;49.574;11.170;2023-12-20T06:21:30;4.90;99.90
13409;DHT22;6775;49.574;11.170;2023-12-20T06:24:00;4.90;99.90
13409;DHT22;6775;49.574;11.170;2023-12-20T06:26:28;4.80;99.90
13409;DHT22;6775;49.574;11.170;2023-12-20T06:28:56;4.80;99.90
13409;DHT22;6775;49.574;11.170;2023-12-20T06:31:24;4.90;99.90
13409;DHT22;6775;49.574;11.170;2023-12-20T06:33:52;4.90;99.90
13409;DHT22;6775;49.574;11.170;2023-12-20T06:36:24;4.90;99.90
13409;DHT22;6775;49.574;11.170;2023-12-20T06:38:53;4.90;99.90
13409;DHT22;6775;49.574;11.170;2023-12-20T06:41:22;4.90;99.90
13409;DHT22;6775;49.574;11.170;2023-12-20T06:43:52;5.00;99.90
13409;DHT22;6775;49.574;11.170;2023-12-20T06:46:20;5.00;99.90
13409;DHT22;6775;49.574;11.170;2023-12-20T06:48:49;4.90;99.90
13409;DHT22;6775;49.574;11.170;2023-12-20T06:51:17;5.00;99.90
13409;DHT22;6775;49.574;11.170;2023-12-20T06:53:46;5.00;99.90
13409;DHT22;6775;49.574;11.170;2023-12-20T06:56:14;5.00;99.90
13409;DHT22;6775;49.574;11.170;2023-12-20T06:58:47;5.00;99.90
13409;DHT22;6775;49.574;11.170;2023-12-20T07:01:15;5.00;99.90
13409;DHT22;6775;49.574;11.170;2023-12-20T07:03:44;5.10;99.90
13409;DHT22;6775;49.574;11.170;2023-12-20T07:06:12;5.00;99.90
13409;DHT22;6775;49.574;11.170;2023-12-20T07:08:43;5.00;99.90
13409;DHT22;6775;49.574;11.170;2023-12-20T07:11:11;5.00;99.90
13409;DHT22;6775;49.574;11.170;2023-12-20T07:13:39;5.10;99.90
13409;DHT22;6775;49.574;11.170;2023-12-20T07:16:09;5.10;99.90
13409;DHT22;6775;49.574;11.170;2023-12-20T07:18:37;5.10;99.90
13409;DHT22;6775;49.574;11.170;2023-12-20T07:21:05;5.10;99.90
13409;DHT22;6775;49.574;11.170;2023-12-20T07:23:34;5.10;99.90
13409;DHT22;6775;49.574;11.170;2023-12-20T07:26:03;5.10;99.90
13409;DHT22;6775;49.574;11.170;2023-12-20T07:28:31;5.10;99.90
13409;DHT22;6775;49.574;11.170;2023-12-20T07:31:00;5.10;99.90
13409;DHT22;6775;49.574;11.170;2023-12-20T07:33:29;5.10;99.90
13409;DHT22;6775;49.574;11.170;2023-12-20T07:36:06;5.10;99.90
13409;DHT22;6775;49.574;11.170;2023-12-20T07:38:34;5.10;99.90
13409;DHT22;6775;49.574;11.170;2023-12-20T07:41:03;5.20;99.90
13409;DHT22;6775;49.574;11.170;2023-12-20T07:43:31;5.10;99.90
13409;DHT22;6775;49.574;11.170;2023-12-20T07:46:04;5.20;99.90
13409;DHT22;6775;49.574;11.170;2023-12-20T07:48:35;5.20;99.90
13409;DHT22;6775;49.574;11.170;2023-12-20T07:51:03;5.20;99.90
13409;DHT22;6775;49.574;11.170;2023-12-20T07:53:33;5.20;99.90
13409;DHT22;6775;49.574;11.170;2023-12-20T07:56:01;5.20;99.90
13409;DHT22;6775;49.574;11.170;2023-12-20T07:58:30;5.20;99.90
13409;DHT22;6775;49.574;11.170;2023-12-20T08:01:17;5.20;99.90
13409;DHT22;6775;49.574;11.170;2023-12-20T08:03:48;5.30;99.90
13409;DHT22;6775;49.574;11.170;2023-12-20T08:06:17;5.30;99.90
13409;DHT22;6775;49.574;11.170;2023-12-20T08:08:45;5.30;99.90
13409;DHT22;6775;49.574;11.170;2023-12-20T08:11:27;5.30;99.90
13409;DHT22;6775;49.574;11.170;2023-12-20T08:13:55;5.40;99.90
13409;DHT22;6775;49.574;11.170;2023-12-20T08:16:23;5.40;99.90
13409;DHT22;6775;49.574;11.170;2023-12-20T08:18:53;5.40;99.90
13409;DHT22;6775;49.574;11.170;2023-12-20T08:21:21;5.40;99.90
13409;DHT22;6775;49.574;11.170;2023-12-20T08:23:49;5.40;99.90
13409;DHT22;6775;49.574;11.170;2023-12-20T08:26:19;5.40;99.90
13409;DHT22;6775;49.574;11.170;2023-12-20T08:28:48;5.50;99.90
13409;DHT22;6775;49.574;11.170;2023-12-20T08:31:17;5.50;99.90
13409;DHT22;6775;49.574;11.170;2023-12-20T08:33:47;5.50;99.90
13409;DHT22;6775;49.574;11.170;2023-12-20T08:36:17;5.50;99.90
13409;DHT22;6775;49.574;11.170;2023-12-20T08:38:45;5.50;99.90
13409;DHT22;6775;49.574;11.170;2023-12-20T08:41:13;5.40;99.90
13409;DHT22;6775;49.574;11.170;2023-12-20T08:43:41;5.40;99.90
13409;DHT22;6775;49.574;11.170;2023-12-20T08:46:10;5.40;99.90
13409;DHT22;6775;49.574;11.170;2023-12-20T08:48:38;5.40;99.90
13409;DHT22;6775;49.574;11.170;2023-12-20T08:51:07;5.40;99.90
13409;DHT22;6775;49.574;11.170;2023-12-20T08:53:37;5.40;99.90
13409;DHT22;6775;49.574;11.170;2023-12-20T08:56:05;5.50;99.90
13409;DHT22;6775;49.574;11.170;2023-12-20T08:58:34;5.50;99.90
13409;DHT22;6775;49.574;11.170;2023-12-20T09:01:03;5.50;99.90
13409;DHT22;6775;49.574;11.170;2023-12-20T09:03:31;5.50;99.90
13409;DHT22;6775;49.574;11.170;2023-12-20T09:06:00;5.50;99.90
13409;DHT22;6775;49.574;11.170;2023-12-20T09:08:27;5.70;99.90
13409;DHT22;6775;49.574;11.170;2023-12-20T09:10:56;5.80;99.90
13409;DHT22;6775;49.574;11.170;2023-12-20T09:13:25;6.00;99.90
13409;DHT22;6775;49.574;11.170;2023-12-20T09:15:55;6.20;99.90
13409;DHT22;6775;49.574;11.170;2023-12-20T09:18:24;6.40;99.90
13409;DHT22;6775;49.574;11.170;2023-12-20T09:20:52;6.40;99.90
13409;DHT22;6775;49.574;11.170;2023-12-20T09:23:20;6.60;99.90
13409;DHT22;6775;49.574;11.170;2023-12-20T09:25:49;6.50;99.90
13409;DHT22;6775;49.574;11.170;2023-12-20T09:28:20;6.40;99.90
13409;DHT22;6775;49.574;11.170;2023-12-20T09:30:49;6.30;99.90
13409;DHT22;6775;49.574;11.170;2023-12-20T09:33:17;6.20;99.90
13409;DHT22;6775;49.574;11.170;2023-12-20T09:35:46;6.20;99.90
13409;DHT22;6775;49.574;11.170;2023-12-20T09:38:14;6.20;99.90
13409;DHT22;6775;49.574;11.170;2023-12-20T09:40:44;6.10;99.90
13409;DHT22;6775;49.574;11.170;2023-12-20T09:43:15;6.20;99.90
13409;DHT22;6775;49.574;11.170;2023-12-20T09:45:46;6.20;99.90
13409;DHT22;6775;49.574;11.170;2023-12-20T09:48:18;6.10;99.90
13409;DHT22;6775;49.574;11.170;2023-12-20T09:50:47;6.20;99.90
13409;DHT22;6775;49.574;11.170;2023-12-20T09:53:19;6.40;99.90
13409;DHT22;6775;49.574;11.170;2023-12-20T09:55:50;6.70;99.90
13409;DHT22;6775;49.574;11.170;2023-12-20T09:58:19;6.90;99.90
13409;DHT22;6775;49.574;11.170;2023-12-20T10:00:49;7.00;99.90
13409;DHT22;6775;49.574;11.170;2023-12-20T10:03:23;7.10;99.90
13409;DHT22;6775;49.574;11.170;2023-12-20T10:05:56;7.10;99.90
13409;DHT22;6775;49.574;11.170;2023-12-20T10:08:25;7.10;99.90
13409;DHT22;6775;49.574;11.170;2023-12-20T10:10:54;7.10;99.90
13409;DHT22;6775;49.574;11.170;2023-12-20T10:13:24;7.30;99.90
13409;DHT22;6775;49.574;11.170;2023-12-20T10:15:55;7.20;99.90
13409;DHT22;6775;49.574;11.170;2023-12-20T10:18:24;7.10;99.90
13409;DHT22;6775;49.574;11.170;2023-12-20T10:21:05;7.00;99.90
13409;DHT22;6775;49.574;11.170;2023-12-20T10:23:34;6.80;99.90
13409;DHT22;6775;49.574;11.170;2023-12-20T10:26:02;6.60;99.90
13409;DHT22;6775;49.574;11.170;2023-12-20T10:28:33;6.50;99.90
13409;DHT22;6775;49.574;11.170;2023-12-20T10:31:03;6.30;99.90
13409;DHT22;6775;49.574;11.170;2023-12-20T10:33:32;6.30;99.90
13409;DHT22;6775;49.574;11.170;2023-12-20T10:36:01;6.20;99.90
13409;DHT22;6775;49.574;11.170;2023-12-20T10:38:29;6.30;99.90
13409;DHT22;6775;49.574;11.170;2023-12-20T10:40:58;6.10;99.90
13409;DHT22;6775;49.574;11.170;2023-12-20T10:43:28;6.10;99.90
13409;DHT22;6775;49.574;11.170;2023-12-20T10:45:59;6.00;99.90
13409;DHT22;6775;49.574;11.170;2023-12-20T10:48:30;6.00;99.90
13409;DHT22;6775;49.574;11.170;2023-12-20T10:51:01;5.90;99.90
13409;DHT22;6775;49.574;11.170;2023-12-20T10:53:30;5.90;99.90
13409;DHT22;6775;49.574;11.170;2023-12-20T10:56:00;5.90;99.90
13409;DHT22;6775;49.574;11.170;2023-12-20T10:58:32;5.90;99.90
13409;DHT22;6775;49.574;11.170;2023-12-20T11:01:04;5.90;99.90
13409;DHT22;6775;49.574;11.170;2023-12-20T11:03:36;5.90;99.90
13409;DHT22;6775;49.574;11.170;2023-12-20T11:06:08;5.90;99.90
13409;DHT22;6775;49.574;11.170;2023-12-20T11:08:46;6.00;99.90
13409;DHT22;6775;49.574;11.170;2023-12-20T11:11:25;6.10;99.90
13409;DHT22;6775;49.574;11.170;2023-12-20T11:14:03;6.10;99.90
13409;DHT22;6775;49.574;11.170;2023-12-20T11:16:38;6.30;99.90
13409;DHT22;6775;49.574;11.170;2023-12-20T11:19:19;6.40;99.90
13409;DHT22;6775;49.574;11.170;2023-12-20T11:21:47;6.40;99.90
13409;DHT22;6775;49.574;11.170;2023-12-20T11:24:16;6.40;99.90
13409;DHT22;6775;49.574;11.170;2023-12-20T11:26:47;6.40;99.90
13409;DHT22;6775;49.574;11.170;2023-12-20T11:29:30;6.30;99.90
13409;DHT22;6775;49.574;11.170;2023-12-20T11:32:02;6.30;99.90
13409;DHT22;6775;49.574;11.170;2023-12-20T11:34:36;6.30;99.90
13409;DHT22;6775;49.574;11.170;2023-12-20T11:37:04;6.40;99.90
13409;DHT22;6775;49.574;11.170;2023-12-20T11:39:32;6.40;99.90
13409;DHT22;6775;49.574;11.170;2023-12-20T11:42:04;6.30;99.90
13409;DHT22;6775;49.574;11.170;2023-12-20T11:44:34;6.30;99.90
13409;DHT22;6775;49.574;11.170;2023-12-20T11:47:04;6.30;99.90
13409;DHT22;6775;49.574;11.170;2023-12-20T11:49:32;6.20;99.90
13409;DHT22;6775;49.574;11.170;2023-12-20T11:52:03;6.20;99.90
13409;DHT22;6775;49.574;11.170;2023-12-20T11:54:31;6.20;99.90
13409;DHT22;6775;49.574;11.170;2023-12-20T11:56:59;6.20;99.90
13409;DHT22;6775;49.574;11.170;2023-12-20T11:59:28;6.20;99.90
13409;DHT22;6775;49.574;11.170;2023-12-20T12:01:56;6.20;99.90
13409;DHT22;6775;49.574;11.170;2023-12-20T12:04:28;6.20;99.90
13409;DHT22;6775;49.574;11.170;2023-12-20T12:06:56;6.20;99.90
13409;DHT22;6775;49.574;11.170;2023-12-20T12:09:26;6.10;99.90
13409;DHT22;6775;49.574;11.170;2023-12-20T12:11:54;6.10;99.90
13409;DHT22;6775;49.574;11.170;2023-12-20T12:14:23;6.10;99.90
13409;DHT22;6775;49.574;11.170;2023-12-20T12:16:52;6.20;99.90
13409;DHT22;6775;49.574;11.170;2023-12-20T12:19:20;6.10;99.90
13409;DHT22;6775;49.574;11.170;2023-12-20T12:21:50;6.10;99.90
13409;DHT22;6775;49.574;11.170;2023-12-20T12:24:20;6.10;99.90
13409;DHT22;6775;49.574;11.170;2023-12-20T12:26:57;6.10;99.90
13409;DHT22;6775;49.574;11.170;2023-12-20T12:29:26;6.10;99.90
13409;DHT22;6775;49.574;11.170;2023-12-20T12:31:55;6.10;99.90
13409;DHT22;6775;49.574;11.170;2023-12-20T12:34:23;6.10;99.90
13409;DHT22;6775;49.574;11.170;2023-12-20T12:36:53;6.10;99.90
13409;DHT22;6775;49.574;11.170;2023-12-20T12:39:21;6.10;99.90
13409;DHT22;6775;49.574;11.170;2023-12-20T12:41:51;6.00;99.90
13409;DHT22;6775;49.574;11.170;2023-12-20T12:44:21;6.00;99.90
13409;DHT22;6775;49.574;11.170;2023-12-20T12:46:50;6.00;99.90
13409;DHT22;6775;49.574;11.170;2023-12-20T12:49:20;6.00;99.90
13409;DHT22;6775;49.574;11.170;2023-12-20T12:52:00;6.10;99.90
13409;DHT22;6775;49.574;11.170;2023-12-20T12:54:29;6.10;99.90
13409;DHT22;6775;49.574;11.170;2023-12-20T12:56:57;6.10;99.90
13409;DHT22;6775;49.574;11.170;2023-12-20T12:59:26;6.10;99.90
13409;DHT22;6775;49.574;11.170;2023-12-20T13:01:54;6.10;99.90
13409;DHT22;6775;49.574;11.170;2023-12-20T13:04:22;6.10;99.90
13409;DHT22;6775;49.574;11.170;2023-12-20T13:06:50;6.10;99.90
13409;DHT22;6775;49.574;11.170;2023-12-20T13:09:20;6.00;99.90
13409;DHT22;6775;49.574;11.170;2023-12-20T13:11:49;6.00;99.90
13409;DHT22;6775;49.574;11.170;2023-12-20T13:14:17;6.00;99.90
13409;DHT22;6775;49.574;11.170;2023-12-20T13:16:45;6.00;99.90
13409;DHT22;6775;49.574;11.170;2023-12-20T13:19:13;6.00;99.90
13409;DHT22;6775;49.574;11.170;2023-12-20T13:21:42;6.00;99.90
13409;DHT22;6775;49.574;11.170;2023-12-20T13:24:10;6.00;99.90
13409;DHT22;6775;49.574;11.170;2023-12-20T13:26:39;6.00;99.90
13409;DHT22;6775;49.574;11.170;2023-12-20T13:29:07;5.90;99.90
13409;DHT22;6775;49.574;11.170;2023-12-20T13:31:36;5.90;99.90
13409;DHT22;6775;49.574;11.170;2023-12-20T13:34:04;5.90;99.90
13409;DHT22;6775;49.574;11.170;2023-12-20T13:36:33;5.80;99.90
13409;DHT22;6775;49.574;11.170;2023-12-20T13:39:03;5.80;99.90
13409;DHT22;6775;49.574;11.170;2023-12-20T13:41:32;5.80;99.90
13409;DHT22;6775;49.574;11.170;2023-12-20T13:44:01;5.80;99.90
13409;DHT22;6775;49.574;11.170;2023-12-20T13:46:30;5.70;99.90
13409;DHT22;6775;49.574;11.170;2023-12-20T13:48:58;5.70;99.90
13409;DHT22;6775;49.574;11.170;2023-12-20T13:51:27;5.70;99.90
13409;DHT22;6775;49.574;11.170;2023-12-20T13:53:55;5.60;99.90
13409;DHT22;6775;49.574;11.170;2023-12-20T13:56:25;5.70;99.90
13409;DHT22;6775;49.574;11.170;2023-12-20T13:58:53;5.60;99.90
13409;DHT22;6775;49.574;11.170;2023-12-20T14:01:23;5.70;99.90
13409;DHT22;6775;49.574;11.170;2023-12-20T14:03:51;5.60;99.90
13409;DHT22;6775;49.574;11.170;2023-12-20T14:06:20;5.60;99.90
13409;DHT22;6775;49.574;11.170;2023-12-20T14:08:48;5.60;99.90
13409;DHT22;6775;49.574;11.170;2023-12-20T14:11:16;5.60;99.90
13409;DHT22;6775;49.574;11.170;2023-12-20T14:13:45;5.60;99.90
13409;DHT22;6775;49.574;11.170;2023-12-20T14:16:13;5.60;99.90
13409;DHT22;6775;49.574;11.170;2023-12-20T14:18:44;5.60;99.90
13409;DHT22;6775;49.574;11.170;2023-12-20T14:21:12;5.60;99.90
13409;DHT22;6775;49.574;11.170;2023-12-20T14:23:40;5.60;99.90
13409;DHT22;6775;49.574;11.170;2023-12-20T14:26:12;5.50;99.90
13409;DHT22;6775;49.574;11.170;2023-12-20T14:28:41;5.60;99.90
13409;DHT22;6775;49.574;11.170;2023-12-20T14:31:09;5.50;99.90
13409;DHT22;6775;49.574;11.170;2023-12-20T14:33:38;5.50;99.90
13409;DHT22;6775;49.574;11.170;2023-12-20T14:36:10;5.50;99.90
13409;DHT22;6775;49.574;11.170;2023-12-20T14:38:38;5.50;99.90
13409;DHT22;6775;49.574;11.170;2023-12-20T14:41:06;5.50;99.90
13409;DHT22;6775;49.574;11.170;2023-12-20T14:43:35;5.50;99.90
13409;DHT22;6775;49.574;11.170;2023-12-20T14:46:04;5.50;99.90
13409;DHT22;6775;49.574;11.170;2023-12-20T14:48:32;5.50;99.90
13409;DHT22;6775;49.574;11.170;2023-12-20T14:51:00;5.50;99.90
13409;DHT22;6775;49.574;11.170;2023-12-20T14:53:30;5.50;99.90
13409;DHT22;6775;49.574;11.170;2023-12-20T14:55:58;5.50;99.90
13409;DHT22;6775;49.574;11.170;2023-12-20T14:58:26;5.40;99.90
13409;DHT22;6775;49.574;11.170;2023-12-20T15:00:56;5.50;99.90
13409;DHT22;6775;49.574;11.170;2023-12-20T15:03:24;5.40;99.90
13409;DHT22;6775;49.574;11.170;2023-12-20T15:05:52;5.40;99.90
13409;DHT22;6775;49.574;11.170;2023-12-20T15:08:20;5.40;99.90
13409;DHT22;6775;49.574;11.170;2023-12-20T15:10:50;5.40;99.90
13409;DHT22;6775;49.574;11.170;2023-12-20T15:13:18;5.40;99.90
13409;DHT22;6775;49.574;11.170;2023-12-20T15:15:46;5.30;99.90
13409;DHT22;6775;49.574;11.170;2023-12-20T15:18:15;5.30;99.90
13409;DHT22;6775;49.574;11.170;2023-12-20T15:20:43;5.30;99.90
13409;DHT22;6775;49.574;11.170;2023-12-20T15:23:12;5.30;99.90
13409;DHT22;6775;49.574;11.170;2023-12-20T15:25:40;5.30;99.90
13409;DHT22;6775;49.574;11.170;2023-12-20T15:28:10;5.30;99.90
13409;DHT22;6775;49.574;11.170;2023-12-20T15:30:38;5.30;99.90
13409;DHT22;6775;49.574;11.170;2023-12-20T15:33:06;5.30;99.90
13409;DHT22;6775;49.574;11.170;2023-12-20T15:35:34;5.20;99.90
13409;DHT22;6775;49.574;11.170;2023-12-20T15:38:03;5.20;99.90
13409;DHT22;6775;49.574;11.170;2023-12-20T15:40:31;5.30;99.90
13409;DHT22;6775;49.574;11.170;2023-12-20T15:43:00;5.30;99.90
13409;DHT22;6775;49.574;11.170;2023-12-20T15:45:29;5.30;99.90
13409;DHT22;6775;49.574;11.170;2023-12-20T15:47:58;5.30;99.90
13409;DHT22;6775;49.574;11.170;2023-12-20T15:50:26;5.30;99.90
13409;DHT22;6775;49.574;11.170;2023-12-20T15:52:54;5.30;99.90
13409;DHT22;6775;49.574;11.170;2023-12-20T15:55:22;5.30;99.90
13409;DHT22;6775;49.574;11.170;2023-12-20T15:57:51;5.30;99.90